Bethel Regional Airport (0B1)
Bethel, ME
Field Elevation: 674
Lat: 44°25.51N  Long: 70°48.60W
CTAF/Unicom Freq: 122.9000
   
     For Weather-by-Phone, call 207-512-2516
Weather Advisories
2024-04-14   14:37 Z
Altimeter 29.75" Hg
Wind 290° @ 16 KT
Gusts 21 KT
Visibility 10 SM
Ceiling CLR
Temperature 8° C (46° F)
Dewpoint -2° C (28° F)
Relative Humidity 46%
Density Altitude --
Condensation Altitude 5,900 feet
Wind Chill: 4° C (39° F)
Wind and Runways
Indicated Runway = 32
Headwind = 14 kt
Crosswind = 8 kt
History
 
 
 
More Info
All DigiWx sites map
 
NOAA Forecast
 
Airport IQ 5010
(KBXM) Brunswick, ME
(39N) Princeton, NJ
 
about DigiWx
 
FAA Disclaimer: The data displayed is for advisory purposes only and is not to be used for flight planning or operations. For official data, please call 207-512-2516 to hear the current automated AWOS voice message.
  METAR 0B1 141437Z AUTO 29016G21KT 10 SM CLR 08/M02 A2975